sensor_id;sensor_type;location;lat;lon;timestamp;P1;durP1;ratioP1;P2;durP2;ratioP2
79204;SDS011;68632;47.512;19.104;2024-03-08T00:00:55;24.75;;;14.63;;
79204;SDS011;68632;47.512;19.104;2024-03-08T00:01:58;24.52;;;15.75;;
79204;SDS011;68632;47.512;19.104;2024-03-08T00:03:00;28.10;;;16.40;;
79204;SDS011;68632;47.512;19.104;2024-03-08T00:04:05;24.85;;;14.45;;
79204;SDS011;68632;47.512;19.104;2024-03-08T00:05:08;25.58;;;15.75;;
79204;SDS011;68632;47.512;19.104;2024-03-08T00:06:10;26.67;;;14.27;;
79204;SDS011;68632;47.512;19.104;2024-03-08T00:07:13;26.75;;;15.32;;
79204;SDS011;68632;47.512;19.104;2024-03-08T00:08:15;27.73;;;15.35;;
79204;SDS011;68632;47.512;19.104;2024-03-08T00:09:17;27.80;;;15.45;;
79204;SDS011;68632;47.512;19.104;2024-03-08T00:10:19;26.80;;;14.52;;
79204;SDS011;68632;47.512;19.104;2024-03-08T00:11:24;27.00;;;16.25;;
79204;SDS011;68632;47.512;19.104;2024-03-08T00:12:28;28.00;;;14.95;;
79204;SDS011;68632;47.512;19.104;2024-03-08T00:13:30;28.10;;;16.17;;
79204;SDS011;68632;47.512;19.104;2024-03-08T00:14:32;26.35;;;15.82;;
79204;SDS011;68632;47.512;19.104;2024-03-08T00:15:35;27.70;;;16.00;;
79204;SDS011;68632;47.512;19.104;2024-03-08T00:16:37;27.58;;;16.60;;
79204;SDS011;68632;47.512;19.104;2024-03-08T00:17:40;31.27;;;17.25;;
79204;SDS011;68632;47.512;19.104;2024-03-08T00:18:43;29.35;;;17.17;;
79204;SDS011;68632;47.512;19.104;2024-03-08T00:19:45;27.52;;;16.20;;
79204;SDS011;68632;47.512;19.104;2024-03-08T00:20:47;31.35;;;17.40;;
79204;SDS011;68632;47.512;19.104;2024-03-08T00:21:49;32.72;;;17.17;;
79204;SDS011;68632;47.512;19.104;2024-03-08T00:22:52;26.52;;;16.17;;
79204;SDS011;68632;47.512;19.104;2024-03-08T00:23:54;28.85;;;17.30;;
79204;SDS011;68632;47.512;19.104;2024-03-08T00:24:56;29.45;;;15.77;;
79204;SDS011;68632;47.512;19.104;2024-03-08T00:25:58;33.90;;;17.35;;
79204;SDS011;68632;47.512;19.104;2024-03-08T00:27:01;28.48;;;17.83;;
79204;SDS011;68632;47.512;19.104;2024-03-08T00:28:04;27.95;;;15.77;;
79204;SDS011;68632;47.512;19.104;2024-03-08T00:29:06;29.58;;;18.08;;
79204;SDS011;68632;47.512;19.104;2024-03-08T00:30:09;28.23;;;16.38;;
79204;SDS011;68632;47.512;19.104;2024-03-08T00:31:15;28.27;;;16.70;;
79204;SDS011;68632;47.512;19.104;2024-03-08T00:32:20;31.20;;;17.73;;
79204;SDS011;68632;47.512;19.104;2024-03-08T00:33:22;28.48;;;16.60;;
79204;SDS011;68632;47.512;19.104;2024-03-08T00:34:25;27.50;;;16.40;;
79204;SDS011;68632;47.512;19.104;2024-03-08T00:35:27;33.63;;;16.25;;
79204;SDS011;68632;47.512;19.104;2024-03-08T00:36:29;28.40;;;15.80;;
79204;SDS011;68632;47.512;19.104;2024-03-08T00:37:32;28.70;;;16.50;;
79204;SDS011;68632;47.512;19.104;2024-03-08T00:38:35;30.98;;;17.48;;
79204;SDS011;68632;47.512;19.104;2024-03-08T00:39:37;29.08;;;16.13;;
79204;SDS011;68632;47.512;19.104;2024-03-08T00:40:40;31.27;;;17.92;;
79204;SDS011;68632;47.512;19.104;2024-03-08T00:41:42;31.55;;;18.30;;
79204;SDS011;68632;47.512;19.104;2024-03-08T00:42:46;28.67;;;15.77;;
79204;SDS011;68632;47.512;19.104;2024-03-08T00:43:48;30.48;;;17.08;;
79204;SDS011;68632;47.512;19.104;2024-03-08T00:44:51;29.38;;;17.05;;
79204;SDS011;68632;47.512;19.104;2024-03-08T00:45:54;32.30;;;18.50;;
79204;SDS011;68632;47.512;19.104;2024-03-08T00:46:56;30.90;;;17.40;;
79204;SDS011;68632;47.512;19.104;2024-03-08T00:47:58;32.47;;;18.27;;
79204;SDS011;68632;47.512;19.104;2024-03-08T00:49:01;30.42;;;16.73;;
79204;SDS011;68632;47.512;19.104;2024-03-08T00:50:03;27.88;;;16.92;;
79204;SDS011;68632;47.512;19.104;2024-03-08T00:51:06;32.30;;;16.83;;
79204;SDS011;68632;47.512;19.104;2024-03-08T00:52:08;29.15;;;16.58;;
79204;SDS011;68632;47.512;19.104;2024-03-08T00:53:11;31.80;;;17.42;;
79204;SDS011;68632;47.512;19.104;2024-03-08T00:54:14;28.95;;;17.48;;
79204;SDS011;68632;47.512;19.104;2024-03-08T00:55:17;29.73;;;18.25;;
79204;SDS011;68632;47.512;19.104;2024-03-08T00:56:19;32.40;;;17.80;;
79204;SDS011;68632;47.512;19.104;2024-03-08T00:57:21;26.23;;;15.98;;
79204;SDS011;68632;47.512;19.104;2024-03-08T00:58:24;30.63;;;17.30;;
79204;SDS011;68632;47.512;19.104;2024-03-08T00:59:26;30.60;;;18.50;;
79204;SDS011;68632;47.512;19.104;2024-03-08T01:00:28;30.40;;;17.00;;
79204;SDS011;68632;47.512;19.104;2024-03-08T01:01:30;31.13;;;18.02;;
79204;SDS011;68632;47.512;19.104;2024-03-08T01:02:33;30.42;;;17.25;;
79204;SDS011;68632;47.512;19.104;2024-03-08T01:03:37;31.45;;;17.27;;
79204;SDS011;68632;47.512;19.104;2024-03-08T01:04:39;29.42;;;17.17;;
79204;SDS011;68632;47.512;19.104;2024-03-08T01:05:42;31.92;;;17.27;;
79204;SDS011;68632;47.512;19.104;2024-03-08T01:06:44;27.33;;;16.73;;
79204;SDS011;68632;47.512;19.104;2024-03-08T01:07:49;31.10;;;17.02;;
79204;SDS011;68632;47.512;19.104;2024-03-08T01:08:51;28.98;;;17.10;;
79204;SDS011;68632;47.512;19.104;2024-03-08T01:09:54;30.13;;;17.38;;
79204;SDS011;68632;47.512;19.104;2024-03-08T01:10:57;28.52;;;17.60;;
79204;SDS011;68632;47.512;19.104;2024-03-08T01:11:59;33.80;;;18.83;;
79204;SDS011;68632;47.512;19.104;2024-03-08T01:13:03;29.42;;;18.92;;
79204;SDS011;68632;47.512;19.104;2024-03-08T01:14:05;32.20;;;18.27;;
79204;SDS011;68632;47.512;19.104;2024-03-08T01:15:08;27.45;;;16.85;;
79204;SDS011;68632;47.512;19.104;2024-03-08T01:16:12;29.08;;;17.20;;
79204;SDS011;68632;47.512;19.104;2024-03-08T01:17:17;32.83;;;18.70;;
79204;SDS011;68632;47.512;19.104;2024-03-08T01:18:19;29.02;;;17.33;;
79204;SDS011;68632;47.512;19.104;2024-03-08T01:19:22;27.20;;;15.70;;
79204;SDS011;68632;47.512;19.104;2024-03-08T01:20:26;28.90;;;15.77;;
79204;SDS011;68632;47.512;19.104;2024-03-08T01:21:28;28.27;;;17.38;;
79204;SDS011;68632;47.512;19.104;2024-03-08T01:22:30;29.77;;;18.30;;
79204;SDS011;68632;47.512;19.104;2024-03-08T01:23:33;32.78;;;18.15;;
79204;SDS011;68632;47.512;19.104;2024-03-08T01:24:36;28.15;;;16.85;;
79204;SDS011;68632;47.512;19.104;2024-03-08T01:25:39;29.65;;;17.20;;
79204;SDS011;68632;47.512;19.104;2024-03-08T01:26:41;31.50;;;17.77;;
79204;SDS011;68632;47.512;19.104;2024-03-08T01:27:43;31.02;;;17.27;;
79204;SDS011;68632;47.512;19.104;2024-03-08T01:28:46;32.00;;;18.05;;
79204;SDS011;68632;47.512;19.104;2024-03-08T01:29:48;32.40;;;18.48;;
79204;SDS011;68632;47.512;19.104;2024-03-08T01:30:50;30.17;;;16.80;;
79204;SDS011;68632;47.512;19.104;2024-03-08T01:31:57;34.17;;;19.00;;
79204;SDS011;68632;47.512;19.104;2024-03-08T01:33:00;28.33;;;16.60;;
79204;SDS011;68632;47.512;19.104;2024-03-08T01:34:02;31.17;;;17.65;;
79204;SDS011;68632;47.512;19.104;2024-03-08T01:35:05;34.83;;;18.67;;
79204;SDS011;68632;47.512;19.104;2024-03-08T01:36:07;33.63;;;18.50;;
79204;SDS011;68632;47.512;19.104;2024-03-08T01:37:10;30.80;;;19.33;;
79204;SDS011;68632;47.512;19.104;2024-03-08T01:38:12;32.53;;;18.90;;
79204;SDS011;68632;47.512;19.104;2024-03-08T01:39:14;33.67;;;18.60;;
79204;SDS011;68632;47.512;19.104;2024-03-08T01:40:17;33.10;;;19.63;;
79204;SDS011;68632;47.512;19.104;2024-03-08T01:41:19;34.40;;;18.40;;
79204;SDS011;68632;47.512;19.104;2024-03-08T01:42:21;34.40;;;18.90;;
79204;SDS011;68632;47.512;19.104;2024-03-08T01:43:27;32.40;;;19.75;;
79204;SDS011;68632;47.512;19.104;2024-03-08T01:44:30;34.10;;;20.30;;
79204;SDS011;68632;47.512;19.104;2024-03-08T01:45:33;34.75;;;19.40;;
79204;SDS011;68632;47.512;19.104;2024-03-08T01:46:36;33.45;;;18.65;;
79204;SDS011;68632;47.512;19.104;2024-03-08T01:47:38;33.47;;;18.05;;
79204;SDS011;68632;47.512;19.104;2024-03-08T01:48:41;37.75;;;20.08;;
79204;SDS011;68632;47.512;19.104;2024-03-08T01:49:43;35.95;;;20.40;;
79204;SDS011;68632;47.512;19.104;2024-03-08T01:50:46;34.17;;;19.13;;
79204;SDS011;68632;47.512;19.104;2024-03-08T01:51:48;31.85;;;18.80;;
79204;SDS011;68632;47.512;19.104;2024-03-08T01:52:51;34.03;;;17.88;;
79204;SDS011;68632;47.512;19.104;2024-03-08T01:53:53;37.05;;;19.65;;
79204;SDS011;68632;47.512;19.104;2024-03-08T01:54:57;38.33;;;20.20;;
79204;SDS011;68632;47.512;19.104;2024-03-08T01:56:02;31.83;;;19.08;;
79204;SDS011;68632;47.512;19.104;2024-03-08T01:57:05;34.15;;;19.50;;
79204;SDS011;68632;47.512;19.104;2024-03-08T01:58:07;39.90;;;19.88;;
79204;SDS011;68632;47.512;19.104;2024-03-08T01:59:11;36.20;;;19.30;;
79204;SDS011;68632;47.512;19.104;2024-03-08T02:00:14;42.40;;;21.15;;
79204;SDS011;68632;47.512;19.104;2024-03-08T02:01:16;38.63;;;20.88;;
79204;SDS011;68632;47.512;19.104;2024-03-08T02:02:21;34.97;;;20.05;;
79204;SDS011;68632;47.512;19.104;2024-03-08T02:03:24;36.83;;;20.15;;
79204;SDS011;68632;47.512;19.104;2024-03-08T02:04:27;40.30;;;21.73;;
79204;SDS011;68632;47.512;19.104;2024-03-08T02:05:29;39.78;;;21.33;;
79204;SDS011;68632;47.512;19.104;2024-03-08T02:06:31;38.83;;;21.00;;
79204;SDS011;68632;47.512;19.104;2024-03-08T02:07:34;38.50;;;20.70;;
79204;SDS011;68632;47.512;19.104;2024-03-08T02:08:36;34.95;;;20.35;;
79204;SDS011;68632;47.512;19.104;2024-03-08T02:09:39;41.53;;;21.80;;
79204;SDS011;68632;47.512;19.104;2024-03-08T02:10:41;41.70;;;22.35;;
79204;SDS011;68632;47.512;19.104;2024-03-08T02:11:44;44.78;;;21.58;;
79204;SDS011;68632;47.512;19.104;2024-03-08T02:12:47;35.78;;;21.20;;
79204;SDS011;68632;47.512;19.104;2024-03-08T02:13:49;36.85;;;20.95;;
79204;SDS011;68632;47.512;19.104;2024-03-08T02:14:53;40.70;;;20.45;;
79204;SDS011;68632;47.512;19.104;2024-03-08T02:15:56;41.97;;;21.13;;
79204;SDS011;68632;47.512;19.104;2024-03-08T02:17:02;43.53;;;21.63;;
79204;SDS011;68632;47.512;19.104;2024-03-08T02:18:04;37.03;;;20.05;;
79204;SDS011;68632;47.512;19.104;2024-03-08T02:19:07;39.95;;;21.45;;
79204;SDS011;68632;47.512;19.104;2024-03-08T02:20:11;41.08;;;21.10;;
79204;SDS011;68632;47.512;19.104;2024-03-08T02:21:17;39.20;;;22.85;;
79204;SDS011;68632;47.512;19.104;2024-03-08T02:22:23;38.13;;;21.10;;
79204;SDS011;68632;47.512;19.104;2024-03-08T02:23:25;41.97;;;22.20;;
79204;SDS011;68632;47.512;19.104;2024-03-08T02:24:28;42.00;;;23.92;;
79204;SDS011;68632;47.512;19.104;2024-03-08T02:25:30;44.00;;;23.05;;
79204;SDS011;68632;47.512;19.104;2024-03-08T02:26:32;47.15;;;23.45;;
79204;SDS011;68632;47.512;19.104;2024-03-08T02:27:35;42.60;;;22.73;;
79204;SDS011;68632;47.512;19.104;2024-03-08T02:28:37;44.63;;;21.95;;
79204;SDS011;68632;47.512;19.104;2024-03-08T02:29:40;41.08;;;23.73;;
79204;SDS011;68632;47.512;19.104;2024-03-08T02:30:42;44.72;;;23.42;;
79204;SDS011;68632;47.512;19.104;2024-03-08T02:31:44;43.58;;;22.90;;
79204;SDS011;68632;47.512;19.104;2024-03-08T02:32:47;44.97;;;22.27;;
79204;SDS011;68632;47.512;19.104;2024-03-08T02:33:49;44.17;;;22.15;;
79204;SDS011;68632;47.512;19.104;2024-03-08T02:34:51;44.85;;;22.13;;
79204;SDS011;68632;47.512;19.104;2024-03-08T02:35:58;43.95;;;23.45;;
79204;SDS011;68632;47.512;19.104;2024-03-08T02:37:00;44.83;;;23.00;;
79204;SDS011;68632;47.512;19.104;2024-03-08T02:38:03;46.60;;;23.48;;
79204;SDS011;68632;47.512;19.104;2024-03-08T02:39:05;45.97;;;23.75;;
79204;SDS011;68632;47.512;19.104;2024-03-08T02:40:08;44.80;;;23.30;;
79204;SDS011;68632;47.512;19.104;2024-03-08T02:41:10;44.45;;;23.35;;
79204;SDS011;68632;47.512;19.104;2024-03-08T02:42:12;47.95;;;25.73;;
79204;SDS011;68632;47.512;19.104;2024-03-08T02:43:15;42.83;;;23.77;;
79204;SDS011;68632;47.512;19.104;2024-03-08T02:44:18;49.22;;;24.20;;
79204;SDS011;68632;47.512;19.104;2024-03-08T02:45:20;49.20;;;26.77;;
79204;SDS011;68632;47.512;19.104;2024-03-08T02:46:22;44.17;;;23.77;;
79204;SDS011;68632;47.512;19.104;2024-03-08T02:47:24;52.97;;;25.52;;
79204;SDS011;68632;47.512;19.104;2024-03-08T02:48:29;49.30;;;25.10;;
79204;SDS011;68632;47.512;19.104;2024-03-08T02:49:31;45.25;;;23.75;;
79204;SDS011;68632;47.512;19.104;2024-03-08T02:50:33;47.60;;;25.88;;
79204;SDS011;68632;47.512;19.104;2024-03-08T02:51:39;47.25;;;24.40;;
79204;SDS011;68632;47.512;19.104;2024-03-08T02:52:42;50.05;;;24.00;;
79204;SDS011;68632;47.512;19.104;2024-03-08T02:53:45;49.17;;;24.67;;
79204;SDS011;68632;47.512;19.104;2024-03-08T02:54:47;44.45;;;24.38;;
79204;SDS011;68632;47.512;19.104;2024-03-08T02:55:50;51.45;;;24.10;;
79204;SDS011;68632;47.512;19.104;2024-03-08T02:56:52;48.90;;;25.27;;
79204;SDS011;68632;47.512;19.104;2024-03-08T02:57:54;50.65;;;25.70;;
79204;SDS011;68632;47.512;19.104;2024-03-08T02:58:57;50.85;;;25.95;;
79204;SDS011;68632;47.512;19.104;2024-03-08T02:59:59;46.10;;;24.42;;
79204;SDS011;68632;47.512;19.104;2024-03-08T03:01:01;49.78;;;25.95;;
79204;SDS011;68632;47.512;19.104;2024-03-08T03:02:04;52.50;;;27.15;;
79204;SDS011;68632;47.512;19.104;2024-03-08T03:03:08;47.40;;;26.48;;
79204;SDS011;68632;47.512;19.104;2024-03-08T03:04:10;47.95;;;24.20;;
79204;SDS011;68632;47.512;19.104;2024-03-08T03:05:13;52.83;;;28.23;;
79204;SDS011;68632;47.512;19.104;2024-03-08T03:06:15;54.70;;;26.38;;
79204;SDS011;68632;47.512;19.104;2024-03-08T03:07:18;56.00;;;25.27;;
79204;SDS011;68632;47.512;19.104;2024-03-08T03:08:21;45.13;;;24.85;;
79204;SDS011;68632;47.512;19.104;2024-03-08T03:09:23;48.60;;;24.55;;
79204;SDS011;68632;47.512;19.104;2024-03-08T03:10:29;50.92;;;25.65;;
79204;SDS011;68632;47.512;19.104;2024-03-08T03:11:31;50.80;;;25.63;;
79204;SDS011;68632;47.512;19.104;2024-03-08T03:12:34;50.72;;;26.23;;
79204;SDS011;68632;47.512;19.104;2024-03-08T03:13:36;50.67;;;24.95;;
79204;SDS011;68632;47.512;19.104;2024-03-08T03:14:38;50.45;;;25.23;;
79204;SDS011;68632;47.512;19.104;2024-03-08T03:15:40;48.08;;;25.58;;
79204;SDS011;68632;47.512;19.104;2024-03-08T03:16:43;52.10;;;26.50;;
79204;SDS011;68632;47.512;19.104;2024-03-08T03:17:48;51.80;;;25.02;;
79204;SDS011;68632;47.512;19.104;2024-03-08T03:18:50;50.58;;;26.90;;
79204;SDS011;68632;47.512;19.104;2024-03-08T03:19:52;52.83;;;27.17;;
79204;SDS011;68632;47.512;19.104;2024-03-08T03:20:55;53.75;;;26.35;;
79204;SDS011;68632;47.512;19.104;2024-03-08T03:21:58;49.47;;;25.83;;
79204;SDS011;68632;47.512;19.104;2024-03-08T03:23:00;53.83;;;26.25;;
79204;SDS011;68632;47.512;19.104;2024-03-08T03:24:04;49.65;;;26.10;;
79204;SDS011;68632;47.512;19.104;2024-03-08T03:25:12;54.05;;;26.70;;
79204;SDS011;68632;47.512;19.104;2024-03-08T03:26:14;51.28;;;26.58;;
79204;SDS011;68632;47.512;19.104;2024-03-08T03:27:19;52.95;;;25.30;;
79204;SDS011;68632;47.512;19.104;2024-03-08T03:28:21;47.72;;;24.38;;
79204;SDS011;68632;47.512;19.104;2024-03-08T03:29:25;48.17;;;25.33;;
79204;SDS011;68632;47.512;19.104;2024-03-08T03:30:28;50.95;;;26.90;;
79204;SDS011;68632;47.512;19.104;2024-03-08T03:31:35;50.90;;;25.13;;
79204;SDS011;68632;47.512;19.104;2024-03-08T03:32:38;51.28;;;25.13;;
79204;SDS011;68632;47.512;19.104;2024-03-08T03:33:49;47.45;;;24.67;;
79204;SDS011;68632;47.512;19.104;2024-03-08T03:34:53;51.72;;;25.77;;
79204;SDS011;68632;47.512;19.104;2024-03-08T03:35:55;51.10;;;25.58;;
79204;SDS011;68632;47.512;19.104;2024-03-08T03:36:58;52.80;;;25.80;;
79204;SDS011;68632;47.512;19.104;2024-03-08T03:38:00;51.38;;;26.98;;
79204;SDS011;68632;47.512;19.104;2024-03-08T03:39:10;50.95;;;27.30;;
79204;SDS011;68632;47.512;19.104;2024-03-08T03:40:14;50.47;;;24.23;;
79204;SDS011;68632;47.512;19.104;2024-03-08T03:41:17;52.10;;;26.17;;
79204;SDS011;68632;47.512;19.104;2024-03-08T03:42:19;52.00;;;26.40;;
79204;SDS011;68632;47.512;19.104;2024-03-08T03:43:21;53.00;;;24.83;;
79204;SDS011;68632;47.512;19.104;2024-03-08T03:44:24;50.65;;;26.35;;
79204;SDS011;68632;47.512;19.104;2024-03-08T03:45:26;48.28;;;25.45;;
79204;SDS011;68632;47.512;19.104;2024-03-08T03:46:29;50.53;;;25.13;;
79204;SDS011;68632;47.512;19.104;2024-03-08T03:47:31;52.95;;;25.67;;
79204;SDS011;68632;47.512;19.104;2024-03-08T03:48:33;50.78;;;25.02;;
79204;SDS011;68632;47.512;19.104;2024-03-08T03:49:36;47.85;;;25.23;;
79204;SDS011;68632;47.512;19.104;2024-03-08T03:50:38;48.70;;;25.50;;
79204;SDS011;68632;47.512;19.104;2024-03-08T03:51:42;52.35;;;27.95;;
79204;SDS011;68632;47.512;19.104;2024-03-08T03:52:44;49.35;;;25.63;;
79204;SDS011;68632;47.512;19.104;2024-03-08T03:53:47;47.20;;;25.15;;
79204;SDS011;68632;47.512;19.104;2024-03-08T03:54:51;49.70;;;25.73;;
79204;SDS011;68632;47.512;19.104;2024-03-08T03:55:53;50.03;;;25.75;;
79204;SDS011;68632;47.512;19.104;2024-03-08T03:56:56;48.58;;;25.15;;
79204;SDS011;68632;47.512;19.104;2024-03-08T03:57:58;52.03;;;24.80;;
79204;SDS011;68632;47.512;19.104;2024-03-08T03:59:03;51.53;;;25.25;;
79204;SDS011;68632;47.512;19.104;2024-03-08T04:00:05;50.95;;;25.38;;
79204;SDS011;68632;47.512;19.104;2024-03-08T04:01:12;49.15;;;24.35;;
79204;SDS011;68632;47.512;19.104;2024-03-08T04:02:14;50.60;;;26.73;;
79204;SDS011;68632;47.512;19.104;2024-03-08T04:03:16;55.20;;;25.70;;
79204;SDS011;68632;47.512;19.104;2024-03-08T04:04:19;53.88;;;26.77;;
79204;SDS011;68632;47.512;19.104;2024-03-08T04:05:21;51.50;;;26.33;;
79204;SDS011;68632;47.512;19.104;2024-03-08T04:06:23;50.55;;;25.92;;
79204;SDS011;68632;47.512;19.104;2024-03-08T04:07:26;53.33;;;25.95;;
79204;SDS011;68632;47.512;19.104;2024-03-08T04:08:28;50.55;;;25.75;;
79204;SDS011;68632;47.512;19.104;2024-03-08T04:09:31;50.90;;;25.52;;
79204;SDS011;68632;47.512;19.104;2024-03-08T04:10:33;52.00;;;25.75;;
79204;SDS011;68632;47.512;19.104;2024-03-08T04:11:35;47.85;;;23.98;;
79204;SDS011;68632;47.512;19.104;2024-03-08T04:12:37;47.60;;;25.45;;
79204;SDS011;68632;47.512;19.104;2024-03-08T04:13:40;50.55;;;24.92;;
79204;SDS011;68632;47.512;19.104;2024-03-08T04:14:42;48.50;;;24.58;;
79204;SDS011;68632;47.512;19.104;2024-03-08T04:15:44;51.53;;;25.25;;
79204;SDS011;68632;47.512;19.104;2024-03-08T04:16:51;52.45;;;24.13;;
79204;SDS011;68632;47.512;19.104;2024-03-08T04:17:53;47.75;;;25.25;;
79204;SDS011;68632;47.512;19.104;2024-03-08T04:18:55;46.47;;;25.30;;
79204;SDS011;68632;47.512;19.104;2024-03-08T04:19:58;50.20;;;24.67;;
79204;SDS011;68632;47.512;19.104;2024-03-08T04:21:00;49.72;;;24.80;;
79204;SDS011;68632;47.512;19.104;2024-03-08T04:22:03;50.50;;;25.02;;
79204;SDS011;68632;47.512;19.104;2024-03-08T04:23:06;47.47;;;25.67;;
79204;SDS011;68632;47.512;19.104;2024-03-08T04:24:08;52.90;;;25.98;;
79204;SDS011;68632;47.512;19.104;2024-03-08T04:25:11;53.38;;;26.40;;
79204;SDS011;68632;47.512;19.104;2024-03-08T04:26:13;54.58;;;27.08;;
79204;SDS011;68632;47.512;19.104;2024-03-08T04:27:18;52.78;;;27.15;;
79204;SDS011;68632;47.512;19.104;2024-03-08T04:28:21;52.88;;;26.05;;
79204;SDS011;68632;47.512;19.104;2024-03-08T04:29:23;52.83;;;25.83;;
79204;SDS011;68632;47.512;19.104;2024-03-08T04:30:25;47.83;;;24.10;;
79204;SDS011;68632;47.512;19.104;2024-03-08T04:31:30;51.70;;;25.67;;
79204;SDS011;68632;47.512;19.104;2024-03-08T04:32:33;50.28;;;25.08;;
79204;SDS011;68632;47.512;19.104;2024-03-08T04:33:35;50.78;;;26.65;;
79204;SDS011;68632;47.512;19.104;2024-03-08T04:34:38;46.40;;;24.45;;
79204;SDS011;68632;47.512;19.104;2024-03-08T04:35:41;50.08;;;25.27;;
79204;SDS011;68632;47.512;19.104;2024-03-08T04:36:43;53.42;;;25.67;;
79204;SDS011;68632;47.512;19.104;2024-03-08T04:37:46;51.10;;;24.80;;
79204;SDS011;68632;47.512;19.104;2024-03-08T04:38:48;51.97;;;26.25;;
79204;SDS011;68632;47.512;19.104;2024-03-08T04:39:50;51.15;;;27.17;;
79204;SDS011;68632;47.512;19.104;2024-03-08T04:40:52;51.72;;;25.10;;
79204;SDS011;68632;47.512;19.104;2024-03-08T04:41:55;47.00;;;24.13;;
79204;SDS011;68632;47.512;19.104;2024-03-08T04:43:03;49.95;;;24.80;;
79204;SDS011;68632;47.512;19.104;2024-03-08T04:44:06;56.03;;;24.85;;
79204;SDS011;68632;47.512;19.104;2024-03-08T04:45:08;52.00;;;25.85;;
79204;SDS011;68632;47.512;19.104;2024-03-08T04:47:15;49.88;;;23.98;;
79204;SDS011;68632;47.512;19.104;2024-03-08T04:48:20;56.28;;;27.05;;
79204;SDS011;68632;47.512;19.104;2024-03-08T04:49:22;56.30;;;27.88;;
79204;SDS011;68632;47.512;19.104;2024-03-08T04:50:24;48.83;;;24.70;;
79204;SDS011;68632;47.512;19.104;2024-03-08T04:51:27;51.28;;;25.50;;
79204;SDS011;68632;47.512;19.104;2024-03-08T04:52:29;50.97;;;24.40;;
79204;SDS011;68632;47.512;19.104;2024-03-08T04:53:31;50.83;;;25.02;;
79204;SDS011;68632;47.512;19.104;2024-03-08T04:54:35;56.97;;;27.20;;
79204;SDS011;68632;47.512;19.104;2024-03-08T04:55:37;52.55;;;26.05;;
79204;SDS011;68632;47.512;19.104;2024-03-08T04:56:39;48.47;;;24.83;;
79204;SDS011;68632;47.512;19.104;2024-03-08T04:57:42;48.92;;;25.00;;
79204;SDS011;68632;47.512;19.104;2024-03-08T04:58:46;49.53;;;24.90;;
79204;SDS011;68632;47.512;19.104;2024-03-08T04:59:51;49.63;;;25.73;;
79204;SDS011;68632;47.512;19.104;2024-03-08T05:00:53;54.17;;;27.67;;
79204;SDS011;68632;47.512;19.104;2024-03-08T05:01:56;50.53;;;24.73;;
79204;SDS011;68632;47.512;19.104;2024-03-08T05:02:58;54.47;;;27.55;;
79204;SDS011;68632;47.512;19.104;2024-03-08T05:04:01;48.83;;;25.67;;
79204;SDS011;68632;47.512;19.104;2024-03-08T05:05:07;54.03;;;27.13;;
79204;SDS011;68632;47.512;19.104;2024-03-08T05:06:12;54.20;;;24.40;;
79204;SDS011;68632;47.512;19.104;2024-03-08T05:07:14;55.05;;;27.23;;
79204;SDS011;68632;47.512;19.104;2024-03-08T05:08:17;51.50;;;25.48;;
79204;SDS011;68632;47.512;19.104;2024-03-08T05:09:20;50.22;;;26.30;;
79204;SDS011;68632;47.512;19.104;2024-03-08T05:10:23;49.20;;;23.88;;
79204;SDS011;68632;47.512;19.104;2024-03-08T05:11:25;55.60;;;25.65;;
79204;SDS011;68632;47.512;19.104;2024-03-08T05:12:27;50.70;;;24.90;;
79204;SDS011;68632;47.512;19.104;2024-03-08T05:13:30;54.88;;;24.98;;
79204;SDS011;68632;47.512;19.104;2024-03-08T05:14:32;56.97;;;27.25;;
79204;SDS011;68632;47.512;19.104;2024-03-08T05:15:36;51.53;;;24.58;;
79204;SDS011;68632;47.512;19.104;2024-03-08T05:16:38;53.60;;;25.55;;
79204;SDS011;68632;47.512;19.104;2024-03-08T05:17:42;57.83;;;28.77;;
79204;SDS011;68632;47.512;19.104;2024-03-08T05:18:44;53.30;;;24.65;;
79204;SDS011;68632;47.512;19.104;2024-03-08T05:19:49;49.38;;;25.25;;
79204;SDS011;68632;47.512;19.104;2024-03-08T05:20:51;53.08;;;26.73;;
79204;SDS011;68632;47.512;19.104;2024-03-08T05:21:53;53.72;;;26.52;;
79204;SDS011;68632;47.512;19.104;2024-03-08T05:22:56;57.72;;;27.35;;
79204;SDS011;68632;47.512;19.104;2024-03-08T05:24:00;59.50;;;27.70;;
79204;SDS011;68632;47.512;19.104;2024-03-08T05:25:03;51.35;;;26.63;;
79204;SDS011;68632;47.512;19.104;2024-03-08T05:26:05;58.85;;;26.98;;
79204;SDS011;68632;47.512;19.104;2024-03-08T05:27:10;54.28;;;26.08;;
79204;SDS011;68632;47.512;19.104;2024-03-08T05:28:13;52.38;;;26.02;;
79204;SDS011;68632;47.512;19.104;2024-03-08T05:29:15;52.88;;;26.55;;
79204;SDS011;68632;47.512;19.104;2024-03-08T05:30:17;48.80;;;25.30;;
79204;SDS011;68632;47.512;19.104;2024-03-08T05:31:20;54.95;;;26.33;;
79204;SDS011;68632;47.512;19.104;2024-03-08T05:32:25;52.70;;;25.98;;
79204;SDS011;68632;47.512;19.104;2024-03-08T05:33:32;54.30;;;26.30;;
79204;SDS011;68632;47.512;19.104;2024-03-08T05:34:36;57.60;;;25.42;;
79204;SDS011;68632;47.512;19.104;2024-03-08T05:35:39;54.10;;;27.50;;
79204;SDS011;68632;47.512;19.104;2024-03-08T05:36:42;52.58;;;25.20;;
79204;SDS011;68632;47.512;19.104;2024-03-08T05:37:46;61.40;;;29.00;;
79204;SDS011;68632;47.512;19.104;2024-03-08T05:38:48;54.95;;;24.85;;
79204;SDS011;68632;47.512;19.104;2024-03-08T05:39:52;58.80;;;27.17;;
79204;SDS011;68632;47.512;19.104;2024-03-08T05:40:56;54.70;;;27.92;;
79204;SDS011;68632;47.512;19.104;2024-03-08T05:41:58;46.90;;;25.38;;
79204;SDS011;68632;47.512;19.104;2024-03-08T05:43:00;51.95;;;25.23;;
79204;SDS011;68632;47.512;19.104;2024-03-08T05:44:03;52.97;;;25.25;;
79204;SDS011;68632;47.512;19.104;2024-03-08T05:45:05;54.58;;;26.35;;
79204;SDS011;68632;47.512;19.104;2024-03-08T05:46:08;52.83;;;25.45;;
79204;SDS011;68632;47.512;19.104;2024-03-08T05:47:10;52.38;;;24.77;;
79204;SDS011;68632;47.512;19.104;2024-03-08T05:48:13;53.72;;;27.90;;
79204;SDS011;68632;47.512;19.104;2024-03-08T05:49:15;55.00;;;26.48;;
79204;SDS011;68632;47.512;19.104;2024-03-08T05:50:18;54.50;;;28.23;;
79204;SDS011;68632;47.512;19.104;2024-03-08T05:51:23;56.03;;;25.80;;
79204;SDS011;68632;47.512;19.104;2024-03-08T05:52:25;54.00;;;25.65;;
79204;SDS011;68632;47.512;19.104;2024-03-08T05:53:28;53.92;;;25.02;;
79204;SDS011;68632;47.512;19.104;2024-03-08T05:54:33;54.25;;;25.40;;
79204;SDS011;68632;47.512;19.104;2024-03-08T05:55:35;58.58;;;25.80;;
79204;SDS011;68632;47.512;19.104;2024-03-08T05:56:38;55.33;;;26.77;;
79204;SDS011;68632;47.512;19.104;2024-03-08T05:57:44;50.40;;;26.58;;
79204;SDS011;68632;47.512;19.104;2024-03-08T05:58:46;52.40;;;24.13;;
79204;SDS011;68632;47.512;19.104;2024-03-08T05:59:49;50.58;;;25.27;;
79204;SDS011;68632;47.512;19.104;2024-03-08T06:00:51;56.97;;;26.95;;
79204;SDS011;68632;47.512;19.104;2024-03-08T06:01:55;56.83;;;27.23;;
79204;SDS011;68632;47.512;19.104;2024-03-08T06:02:58;56.20;;;26.58;;
79204;SDS011;68632;47.512;19.104;2024-03-08T06:04:00;48.92;;;25.40;;